Airfield :
LOGIN :

Register | Disclaimer

   EN    FR    IT 

 










Legend :    VFR   Marginal VFR   IFR   Intensive IFR   Very Intensive IFR
Visi :
Ceiling :
>= 8 km
>= 3000ft
5 to 8 km
1000 to 3000 ft
1500m to 5 km
500 to 1000 ft
800 to 1500m
200 to 500 ft
< 800m
< 200 ft
Symbols :   Thunderstorms  Fog  Heavy snow  Heavy precipitations  Wind > 20 kt
SIGMETs :     Misc.  Thunderstorms  Icing  Turbulence  Mountain Waves  Volcanic Ashes







- Airport Elevation : 1416 ft
- IATA code : ZRH


LSZH - Zurich

CURRENT METAR :
  • 220350Z 00000KT 6000 1400N R14/1100N R16/P2000N R28/P2000N R34/P2000N BCFG FEW001 05/04 Q1021 BECMG 4000

EXPIRED METARs :
  • 220320Z 00000KT 6000 2000N R14/1100N R16/P2000N R28/P2000N R34/P2000N BCFG FEW002 05/05 Q1021 BECMG 4000
  • 220250Z 00000KT 8000 R14/0650D R16/P2000N R28/P2000N R34/P2000N BCFG FEW002 05/05 Q1021 BECMG 4000
  • 220220Z 00000KT 8000 R14/0650D R16/P2000N R28/P2000N R34/P2000N BCFG FEW001 05/05 Q1021 BECMG 4000
  • 220150Z 31001KT 9999 BCFG NSC 06/05 Q1021 BECMG 4000
  • 220120Z 29001KT 9999 MIFG NSC 05/05 Q1021 NOSIG

TAF TAF LSZH
Valid from the 22 at 03:00 until the 23 at 09:00 UTC


220225Z 2203/2309 VRB03KT CAVOK TX20/2214Z TN05/2204Z TN07/2304Z
BECMG 2203/2206 3000 BCFG NSC
PROB40 2203/2208 1200 PRFG BKN003
PROB30 2203/2208 0500 FG VV002
BECMG 2208/2211 CAVOK
BECMG 2300/2303 2000 BCFG NSC
PROB30 2303/2308 0500 FG VV002
BECMG 2307/2309 8000 FEW003
ATIS : +41 43 816 2295 (DEP) +41 43 816 2294 (ARR)
No reported NOTAMs for that airfield.



MET'MAP, your aeronautical weather chart ! - Copyright ORBIFLY December 2007 - Disclaimer

ORBIFLY MET'MAP TEAM :

Programming & Development : Alexandra Zaïnal
Concept & Development : Baudouin d'Aumeries
Co-Development & Prog : Marc-Olivier Méhu
Technical & hardware support : Manuel Goepfert

Contact : metmap@orbifly.com




SOURCES & CREDITS :

   NOAA